sensor_id;sensor_type;location;lat;lon;timestamp;temperature;humidity
7900;DHT22;3995;50.856;4.404;2023-04-03T00:00:34;11.20;50.30
7900;DHT22;3995;50.856;4.404;2023-04-03T00:03:01;11.10;50.20
7900;DHT22;3995;50.856;4.404;2023-04-03T00:05:28;11.10;50.20
7900;DHT22;3995;50.856;4.404;2023-04-03T00:07:57;11.10;50.20
7900;DHT22;3995;50.856;4.404;2023-04-03T00:10:25;11.10;50.20
7900;DHT22;3995;50.856;4.404;2023-04-03T00:12:53;11.00;50.10
7900;DHT22;3995;50.856;4.404;2023-04-03T00:15:20;11.00;49.90
7900;DHT22;3995;50.856;4.404;2023-04-03T00:17:46;11.00;50.00
7900;DHT22;3995;50.856;4.404;2023-04-03T00:20:14;11.00;50.10
7900;DHT22;3995;50.856;4.404;2023-04-03T00:22:41;11.00;50.00
7900;DHT22;3995;50.856;4.404;2023-04-03T00:25:10;10.90;49.90
7900;DHT22;3995;50.856;4.404;2023-04-03T00:27:37;10.90;49.80
7900;DHT22;3995;50.856;4.404;2023-04-03T00:30:07;10.90;49.70
7900;DHT22;3995;50.856;4.404;2023-04-03T00:32:34;10.80;49.50
7900;DHT22;3995;50.856;4.404;2023-04-03T00:35:02;10.80;49.70
7900;DHT22;3995;50.856;4.404;2023-04-03T00:37:30;10.80;49.70
7900;DHT22;3995;50.856;4.404;2023-04-03T00:39:58;10.80;49.60
7900;DHT22;3995;50.856;4.404;2023-04-03T00:42:27;10.80;49.50
7900;DHT22;3995;50.856;4.404;2023-04-03T00:45:30;10.80;49.80
7900;DHT22;3995;50.856;4.404;2023-04-03T00:47:58;10.90;50.00
7900;DHT22;3995;50.856;4.404;2023-04-03T00:50:27;10.80;50.00
7900;DHT22;3995;50.856;4.404;2023-04-03T00:52:55;10.80;49.90
7900;DHT22;3995;50.856;4.404;2023-04-03T00:55:23;10.80;49.70
7900;DHT22;3995;50.856;4.404;2023-04-03T00:57:53;10.80;49.50
7900;DHT22;3995;50.856;4.404;2023-04-03T01:00:22;10.80;49.60
7900;DHT22;3995;50.856;4.404;2023-04-03T01:02:50;10.80;49.60
7900;DHT22;3995;50.856;4.404;2023-04-03T01:05:19;10.80;50.20
7900;DHT22;3995;50.856;4.404;2023-04-03T01:07:48;10.80;49.50
7900;DHT22;3995;50.856;4.404;2023-04-03T01:10:17;10.70;49.30
7900;DHT22;3995;50.856;4.404;2023-04-03T01:12:46;10.70;49.30
7900;DHT22;3995;50.856;4.404;2023-04-03T01:15:18;10.70;49.30
7900;DHT22;3995;50.856;4.404;2023-04-03T01:17:48;10.70;49.40
7900;DHT22;3995;50.856;4.404;2023-04-03T01:23:33;10.70;49.20
7900;DHT22;3995;50.856;4.404;2023-04-03T01:26:02;10.60;49.40
7900;DHT22;3995;50.856;4.404;2023-04-03T01:28:34;10.50;49.40
7900;DHT22;3995;50.856;4.404;2023-04-03T01:31:12;10.60;49.50
7900;DHT22;3995;50.856;4.404;2023-04-03T01:33:42;10.60;49.50
7900;DHT22;3995;50.856;4.404;2023-04-03T01:36:10;10.50;49.40
7900;DHT22;3995;50.856;4.404;2023-04-03T01:38:41;10.50;49.40
7900;DHT22;3995;50.856;4.404;2023-04-03T01:41:08;10.50;49.40
7900;DHT22;3995;50.856;4.404;2023-04-03T01:43:36;10.50;49.50
7900;DHT22;3995;50.856;4.404;2023-04-03T01:46:03;10.50;49.40
7900;DHT22;3995;50.856;4.404;2023-04-03T01:48:30;10.50;49.30
7900;DHT22;3995;50.856;4.404;2023-04-03T01:50:59;10.50;49.20
7900;DHT22;3995;50.856;4.404;2023-04-03T01:53:27;10.50;49.30
7900;DHT22;3995;50.856;4.404;2023-04-03T01:55:54;10.50;49.20
7900;DHT22;3995;50.856;4.404;2023-04-03T01:58:21;10.50;49.20
7900;DHT22;3995;50.856;4.404;2023-04-03T02:00:48;10.50;49.20
7900;DHT22;3995;50.856;4.404;2023-04-03T02:03:16;10.40;49.10
7900;DHT22;3995;50.856;4.404;2023-04-03T02:05:43;10.40;49.10
7900;DHT22;3995;50.856;4.404;2023-04-03T02:08:12;10.40;49.10
7900;DHT22;3995;50.856;4.404;2023-04-03T02:10:40;10.40;49.20
7900;DHT22;3995;50.856;4.404;2023-04-03T02:13:07;10.40;49.20
7900;DHT22;3995;50.856;4.404;2023-04-03T02:15:37;10.40;49.10
7900;DHT22;3995;50.856;4.404;2023-04-03T02:18:04;10.40;49.10
7900;DHT22;3995;50.856;4.404;2023-04-03T02:20:31;10.30;49.00
7900;DHT22;3995;50.856;4.404;2023-04-03T02:22:59;10.30;49.00
7900;DHT22;3995;50.856;4.404;2023-04-03T02:25:30;10.30;49.00
7900;DHT22;3995;50.856;4.404;2023-04-03T02:27:57;10.30;49.00
7900;DHT22;3995;50.856;4.404;2023-04-03T02:30:24;10.20;48.90
7900;DHT22;3995;50.856;4.404;2023-04-03T02:32:52;10.20;48.90
7900;DHT22;3995;50.856;4.404;2023-04-03T02:35:19;10.20;49.00
7900;DHT22;3995;50.856;4.404;2023-04-03T02:37:46;10.20;49.10
7900;DHT22;3995;50.856;4.404;2023-04-03T02:40:14;10.20;49.10
7900;DHT22;3995;50.856;4.404;2023-04-03T02:42:43;10.20;49.10
7900;DHT22;3995;50.856;4.404;2023-04-03T02:45:10;10.20;49.10
7900;DHT22;3995;50.856;4.404;2023-04-03T02:47:37;10.10;49.10
7900;DHT22;3995;50.856;4.404;2023-04-03T02:50:05;10.10;49.00
7900;DHT22;3995;50.856;4.404;2023-04-03T02:52:32;10.10;49.10
7900;DHT22;3995;50.856;4.404;2023-04-03T02:54:59;10.10;49.00
7900;DHT22;3995;50.856;4.404;2023-04-03T02:57:27;10.10;49.00
7900;DHT22;3995;50.856;4.404;2023-04-03T02:59:56;10.00;48.90
7900;DHT22;3995;50.856;4.404;2023-04-03T03:02:23;10.00;49.00
7900;DHT22;3995;50.856;4.404;2023-04-03T03:04:50;9.90;50.00
7900;DHT22;3995;50.856;4.404;2023-04-03T03:07:17;9.90;50.00
7900;DHT22;3995;50.856;4.404;2023-04-03T03:09:45;9.90;50.00
7900;DHT22;3995;50.856;4.404;2023-04-03T03:12:12;9.90;50.00
7900;DHT22;3995;50.856;4.404;2023-04-03T03:14:40;9.90;49.90
7900;DHT22;3995;50.856;4.404;2023-04-03T03:17:09;9.90;49.90
7900;DHT22;3995;50.856;4.404;2023-04-03T03:19:37;9.90;49.80
7900;DHT22;3995;50.856;4.404;2023-04-03T03:22:04;9.80;49.80
7900;DHT22;3995;50.856;4.404;2023-04-03T03:24:32;9.80;49.90
7900;DHT22;3995;50.856;4.404;2023-04-03T03:26:59;9.80;50.00
7900;DHT22;3995;50.856;4.404;2023-04-03T03:29:26;9.80;50.00
7900;DHT22;3995;50.856;4.404;2023-04-03T03:31:53;9.80;50.10
7900;DHT22;3995;50.856;4.404;2023-04-03T03:34:22;9.80;50.00
7900;DHT22;3995;50.856;4.404;2023-04-03T03:36:49;9.80;50.00
7900;DHT22;3995;50.856;4.404;2023-04-03T03:39:16;9.80;50.10
7900;DHT22;3995;50.856;4.404;2023-04-03T03:41:43;9.80;50.10
7900;DHT22;3995;50.856;4.404;2023-04-03T03:44:10;9.80;50.10
7900;DHT22;3995;50.856;4.404;2023-04-03T03:46:38;9.80;50.20
7900;DHT22;3995;50.856;4.404;2023-04-03T03:49:05;9.80;50.10
7900;DHT22;3995;50.856;4.404;2023-04-03T03:51:33;9.70;50.00
7900;DHT22;3995;50.856;4.404;2023-04-03T03:54:01;9.80;50.10
7900;DHT22;3995;50.856;4.404;2023-04-03T03:56:28;9.80;50.10
7900;DHT22;3995;50.856;4.404;2023-04-03T03:58:55;9.80;50.20
7900;DHT22;3995;50.856;4.404;2023-04-03T04:01:23;9.80;50.20
7900;DHT22;3995;50.856;4.404;2023-04-03T04:03:51;9.80;50.20
7900;DHT22;3995;50.856;4.404;2023-04-03T04:06:19;9.80;50.20
7900;DHT22;3995;50.856;4.404;2023-04-03T04:08:48;9.80;50.20
7900;DHT22;3995;50.856;4.404;2023-04-03T04:11:15;9.80;50.40
7900;DHT22;3995;50.856;4.404;2023-04-03T04:13:42;9.80;50.50
7900;DHT22;3995;50.856;4.404;2023-04-03T04:16:09;9.90;50.50
7900;DHT22;3995;50.856;4.404;2023-04-03T04:18:37;9.90;50.10
7900;DHT22;3995;50.856;4.404;2023-04-03T04:21:03;10.00;49.00
7900;DHT22;3995;50.856;4.404;2023-04-03T04:23:31;10.00;48.90
7900;DHT22;3995;50.856;4.404;2023-04-03T04:25:59;10.00;48.90
7900;DHT22;3995;50.856;4.404;2023-04-03T04:28:26;10.00;49.00
7900;DHT22;3995;50.856;4.404;2023-04-03T04:30:53;9.90;49.90
7900;DHT22;3995;50.856;4.404;2023-04-03T04:33:20;9.90;50.00
7900;DHT22;3995;50.856;4.404;2023-04-03T04:35:48;9.90;50.00
7900;DHT22;3995;50.856;4.404;2023-04-03T04:38:15;9.90;49.90
7900;DHT22;3995;50.856;4.404;2023-04-03T04:40:43;9.90;49.90
7900;DHT22;3995;50.856;4.404;2023-04-03T04:43:12;9.80;49.80
7900;DHT22;3995;50.856;4.404;2023-04-03T04:45:40;9.80;49.80
7900;DHT22;3995;50.856;4.404;2023-04-03T04:48:07;9.80;49.90
7900;DHT22;3995;50.856;4.404;2023-04-03T04:50:35;9.80;50.00
7900;DHT22;3995;50.856;4.404;2023-04-03T04:53:02;9.80;50.00
7900;DHT22;3995;50.856;4.404;2023-04-03T04:55:29;9.80;50.00
7900;DHT22;3995;50.856;4.404;2023-04-03T04:57:57;9.80;50.00
7900;DHT22;3995;50.856;4.404;2023-04-03T05:00:25;9.80;49.90
7900;DHT22;3995;50.856;4.404;2023-04-03T05:02:52;9.80;49.90
7900;DHT22;3995;50.856;4.404;2023-04-03T05:05:20;9.80;49.90
7900;DHT22;3995;50.856;4.404;2023-04-03T05:07:47;9.80;49.90
7900;DHT22;3995;50.856;4.404;2023-04-03T05:10:15;9.70;49.80
7900;DHT22;3995;50.856;4.404;2023-04-03T05:12:42;9.70;49.80
7900;DHT22;3995;50.856;4.404;2023-04-03T05:15:10;9.70;49.80
7900;DHT22;3995;50.856;4.404;2023-04-03T05:17:41;9.70;49.90
7900;DHT22;3995;50.856;4.404;2023-04-03T05:20:09;9.70;49.90
7900;DHT22;3995;50.856;4.404;2023-04-03T05:22:37;9.70;49.90
7900;DHT22;3995;50.856;4.404;2023-04-03T05:25:04;9.70;50.00
7900;DHT22;3995;50.856;4.404;2023-04-03T05:27:32;9.70;50.00
7900;DHT22;3995;50.856;4.404;2023-04-03T05:30:04;9.70;50.10
7900;DHT22;3995;50.856;4.404;2023-04-03T05:32:32;9.70;50.00
7900;DHT22;3995;50.856;4.404;2023-04-03T05:35:01;9.70;50.00
7900;DHT22;3995;50.856;4.404;2023-04-03T05:37:28;9.70;49.90
7900;DHT22;3995;50.856;4.404;2023-04-03T05:39:55;9.70;49.90
7900;DHT22;3995;50.856;4.404;2023-04-03T05:42:22;9.70;49.90
7900;DHT22;3995;50.856;4.404;2023-04-03T05:44:49;9.70;50.10
7900;DHT22;3995;50.856;4.404;2023-04-03T05:47:17;9.70;50.10
7900;DHT22;3995;50.856;4.404;2023-04-03T05:49:45;9.80;50.00
7900;DHT22;3995;50.856;4.404;2023-04-03T05:52:19;9.80;49.80
7900;DHT22;3995;50.856;4.404;2023-04-03T05:54:50;9.90;49.80
7900;DHT22;3995;50.856;4.404;2023-04-03T05:57:21;9.80;49.60
7900;DHT22;3995;50.856;4.404;2023-04-03T05:59:53;9.80;49.50
7900;DHT22;3995;50.856;4.404;2023-04-03T06:02:22;9.80;49.50
7900;DHT22;3995;50.856;4.404;2023-04-03T06:04:49;9.80;49.50
7900;DHT22;3995;50.856;4.404;2023-04-03T06:07:22;9.70;49.50
7900;DHT22;3995;50.856;4.404;2023-04-03T06:09:53;9.70;49.50
7900;DHT22;3995;50.856;4.404;2023-04-03T06:12:21;9.70;49.70
7900;DHT22;3995;50.856;4.404;2023-04-03T06:14:49;9.70;49.90
7900;DHT22;3995;50.856;4.404;2023-04-03T06:17:16;9.70;49.90
7900;DHT22;3995;50.856;4.404;2023-04-03T06:19:44;9.70;49.90
7900;DHT22;3995;50.856;4.404;2023-04-03T06:22:11;9.60;49.80
7900;DHT22;3995;50.856;4.404;2023-04-03T06:24:41;9.60;50.00
7900;DHT22;3995;50.856;4.404;2023-04-03T06:27:10;9.70;50.00
7900;DHT22;3995;50.856;4.404;2023-04-03T06:29:37;9.60;50.00
7900;DHT22;3995;50.856;4.404;2023-04-03T06:32:05;9.60;50.20
7900;DHT22;3995;50.856;4.404;2023-04-03T06:34:32;9.70;50.50
7900;DHT22;3995;50.856;4.404;2023-04-03T06:37:00;9.70;50.40
7900;DHT22;3995;50.856;4.404;2023-04-03T06:39:28;9.80;50.10
7900;DHT22;3995;50.856;4.404;2023-04-03T06:41:57;9.80;50.00
7900;DHT22;3995;50.856;4.404;2023-04-03T06:44:24;9.80;50.10
7900;DHT22;3995;50.856;4.404;2023-04-03T06:46:51;9.80;50.20
7900;DHT22;3995;50.856;4.404;2023-04-03T06:49:19;9.80;50.10
7900;DHT22;3995;50.856;4.404;2023-04-03T06:51:47;9.90;50.00
7900;DHT22;3995;50.856;4.404;2023-04-03T06:54:14;9.90;50.10
7900;DHT22;3995;50.856;4.404;2023-04-03T06:56:41;9.90;50.30
7900;DHT22;3995;50.856;4.404;2023-04-03T06:59:12;9.90;50.20
7900;DHT22;3995;50.856;4.404;2023-04-03T07:01:40;9.90;50.00
7900;DHT22;3995;50.856;4.404;2023-04-03T07:04:07;9.90;50.20
7900;DHT22;3995;50.856;4.404;2023-04-03T07:06:35;9.90;50.30
7900;DHT22;3995;50.856;4.404;2023-04-03T07:09:03;9.90;50.40
7900;DHT22;3995;50.856;4.404;2023-04-03T07:11:30;9.90;50.50
7900;DHT22;3995;50.856;4.404;2023-04-03T07:13:58;9.80;50.30
7900;DHT22;3995;50.856;4.404;2023-04-03T07:16:27;9.80;50.30
7900;DHT22;3995;50.856;4.404;2023-04-03T07:18:56;9.80;50.40
7900;DHT22;3995;50.856;4.404;2023-04-03T07:21:24;9.80;50.60
7900;DHT22;3995;50.856;4.404;2023-04-03T07:23:51;9.80;50.70
7900;DHT22;3995;50.856;4.404;2023-04-03T07:26:18;9.80;50.70
7900;DHT22;3995;50.856;4.404;2023-04-03T07:28:46;9.80;50.80
7900;DHT22;3995;50.856;4.404;2023-04-03T07:31:14;9.90;51.00
7900;DHT22;3995;50.856;4.404;2023-04-03T07:33:44;9.90;50.70
7900;DHT22;3995;50.856;4.404;2023-04-03T07:36:16;9.90;50.70
7900;DHT22;3995;50.856;4.404;2023-04-03T07:38:43;9.90;50.80
7900;DHT22;3995;50.856;4.404;2023-04-03T07:41:12;9.90;50.90
7900;DHT22;3995;50.856;4.404;2023-04-03T07:43:40;9.90;51.00
7900;DHT22;3995;50.856;4.404;2023-04-03T07:46:07;9.90;51.10
7900;DHT22;3995;50.856;4.404;2023-04-03T07:48:35;9.90;51.00
7900;DHT22;3995;50.856;4.404;2023-04-03T07:51:05;10.00;50.00
7900;DHT22;3995;50.856;4.404;2023-04-03T07:53:33;10.00;49.90
7900;DHT22;3995;50.856;4.404;2023-04-03T07:56:00;10.00;49.80
7900;DHT22;3995;50.856;4.404;2023-04-03T07:58:29;10.00;49.90
7900;DHT22;3995;50.856;4.404;2023-04-03T08:00:57;10.10;49.70
7900;DHT22;3995;50.856;4.404;2023-04-03T08:03:24;10.00;49.30
7900;DHT22;3995;50.856;4.404;2023-04-03T08:05:51;10.00;49.20
7900;DHT22;3995;50.856;4.404;2023-04-03T08:08:21;10.10;49.40
7900;DHT22;3995;50.856;4.404;2023-04-03T08:10:50;10.10;49.40
7900;DHT22;3995;50.856;4.404;2023-04-03T08:13:18;10.10;49.30
7900;DHT22;3995;50.856;4.404;2023-04-03T08:15:46;10.10;49.30
7900;DHT22;3995;50.856;4.404;2023-04-03T08:18:14;10.10;49.30
7900;DHT22;3995;50.856;4.404;2023-04-03T08:20:42;10.10;49.40
7900;DHT22;3995;50.856;4.404;2023-04-03T08:23:10;10.10;49.40
7900;DHT22;3995;50.856;4.404;2023-04-03T08:25:39;10.20;49.60
7900;DHT22;3995;50.856;4.404;2023-04-03T08:28:07;10.20;49.50
7900;DHT22;3995;50.856;4.404;2023-04-03T08:30:34;10.20;49.40
7900;DHT22;3995;50.856;4.404;2023-04-03T08:33:03;10.20;49.40
7900;DHT22;3995;50.856;4.404;2023-04-03T08:35:30;10.20;49.50
7900;DHT22;3995;50.856;4.404;2023-04-03T08:37:58;10.20;49.40
7900;DHT22;3995;50.856;4.404;2023-04-03T08:40:26;10.20;50.00
7900;DHT22;3995;50.856;4.404;2023-04-03T08:43:03;10.20;49.40
7900;DHT22;3995;50.856;4.404;2023-04-03T08:45:44;10.30;49.40
7900;DHT22;3995;50.856;4.404;2023-04-03T08:48:15;10.30;49.50
7900;DHT22;3995;50.856;4.404;2023-04-03T08:50:49;10.40;49.30
7900;DHT22;3995;50.856;4.404;2023-04-03T08:53:19;10.40;48.70
7900;DHT22;3995;50.856;4.404;2023-04-03T08:55:48;10.40;48.40
7900;DHT22;3995;50.856;4.404;2023-04-03T08:58:19;10.40;48.20
7900;DHT22;3995;50.856;4.404;2023-04-03T09:00:50;10.40;48.00
7900;DHT22;3995;50.856;4.404;2023-04-03T09:03:20;10.40;48.30
7900;DHT22;3995;50.856;4.404;2023-04-03T09:05:53;10.40;48.60
7900;DHT22;3995;50.856;4.404;2023-04-03T09:08:24;10.40;48.90
7900;DHT22;3995;50.856;4.404;2023-04-03T09:11:00;10.50;49.10
7900;DHT22;3995;50.856;4.404;2023-04-03T09:13:34;10.50;48.90
7900;DHT22;3995;50.856;4.404;2023-04-03T09:16:15;10.50;48.30
7900;DHT22;3995;50.856;4.404;2023-04-03T09:18:45;10.50;48.00
7900;DHT22;3995;50.856;4.404;2023-04-03T09:21:21;10.50;48.00
7900;DHT22;3995;50.856;4.404;2023-04-03T09:23:52;10.60;47.80
7900;DHT22;3995;50.856;4.404;2023-04-03T09:26:25;10.60;47.80
7900;DHT22;3995;50.856;4.404;2023-04-03T09:28:59;10.60;47.60
7900;DHT22;3995;50.856;4.404;2023-04-03T09:31:27;10.60;47.50
7900;DHT22;3995;50.856;4.404;2023-04-03T09:33:59;10.70;47.10
7900;DHT22;3995;50.856;4.404;2023-04-03T09:36:41;10.70;46.60
7900;DHT22;3995;50.856;4.404;2023-04-03T09:39:12;10.70;46.10
7900;DHT22;3995;50.856;4.404;2023-04-03T09:41:40;10.70;46.60
7900;DHT22;3995;50.856;4.404;2023-04-03T09:44:24;10.70;47.00
7900;DHT22;3995;50.856;4.404;2023-04-03T09:46:51;10.90;46.80
7900;DHT22;3995;50.856;4.404;2023-04-03T09:49:18;10.90;46.70
7900;DHT22;3995;50.856;4.404;2023-04-03T09:51:49;11.00;46.30
7900;DHT22;3995;50.856;4.404;2023-04-03T09:54:35;11.10;46.10
7900;DHT22;3995;50.856;4.404;2023-04-03T09:57:09;11.30;45.30
7900;DHT22;3995;50.856;4.404;2023-04-03T09:59:44;11.30;44.70
7900;DHT22;3995;50.856;4.404;2023-04-03T10:02:32;11.40;44.20
7900;DHT22;3995;50.856;4.404;2023-04-03T10:05:01;11.60;43.80
7900;DHT22;3995;50.856;4.404;2023-04-03T10:07:32;11.60;44.00
7900;DHT22;3995;50.856;4.404;2023-04-03T10:10:01;11.70;43.60
7900;DHT22;3995;50.856;4.404;2023-04-03T10:12:29;11.90;43.30
7900;DHT22;3995;50.856;4.404;2023-04-03T10:14:58;12.00;43.60
7900;DHT22;3995;50.856;4.404;2023-04-03T10:17:37;12.10;43.60
7900;DHT22;3995;50.856;4.404;2023-04-03T10:20:18;12.30;43.20
7900;DHT22;3995;50.856;4.404;2023-04-03T10:23:02;12.30;42.70
7900;DHT22;3995;50.856;4.404;2023-04-03T10:25:36;12.50;42.30
7900;DHT22;3995;50.856;4.404;2023-04-03T10:28:11;12.60;42.60
7900;DHT22;3995;50.856;4.404;2023-04-03T10:30:48;12.70;42.10
7900;DHT22;3995;50.856;4.404;2023-04-03T10:33:25;12.80;41.20
7900;DHT22;3995;50.856;4.404;2023-04-03T10:36:02;13.00;40.90
7900;DHT22;3995;50.856;4.404;2023-04-03T10:38:42;13.10;40.80
7900;DHT22;3995;50.856;4.404;2023-04-03T10:41:14;13.30;40.40
7900;DHT22;3995;50.856;4.404;2023-04-03T10:43:47;13.50;40.30
7900;DHT22;3995;50.856;4.404;2023-04-03T10:46:23;13.80;39.70
7900;DHT22;3995;50.856;4.404;2023-04-03T10:49:05;14.40;39.10
7900;DHT22;3995;50.856;4.404;2023-04-03T10:51:41;14.90;38.00
7900;DHT22;3995;50.856;4.404;2023-04-03T10:54:12;15.30;38.10
7900;DHT22;3995;50.856;4.404;2023-04-03T10:56:42;15.60;37.60
7900;DHT22;3995;50.856;4.404;2023-04-03T10:59:18;15.80;37.60
7900;DHT22;3995;50.856;4.404;2023-04-03T11:01:52;16.10;36.80
7900;DHT22;3995;50.856;4.404;2023-04-03T11:04:22;16.40;36.40
7900;DHT22;3995;50.856;4.404;2023-04-03T11:06:55;16.80;35.80
7900;DHT22;3995;50.856;4.404;2023-04-03T11:09:27;17.10;35.00
7900;DHT22;3995;50.856;4.404;2023-04-03T11:11:58;17.30;34.30
7900;DHT22;3995;50.856;4.404;2023-04-03T11:14:30;17.50;34.00
7900;DHT22;3995;50.856;4.404;2023-04-03T11:17:08;17.60;33.90
7900;DHT22;3995;50.856;4.404;2023-04-03T11:19:42;17.70;33.60
7900;DHT22;3995;50.856;4.404;2023-04-03T11:22:16;17.70;33.00
7900;DHT22;3995;50.856;4.404;2023-04-03T11:24:56;17.70;32.60
7900;DHT22;3995;50.856;4.404;2023-04-03T11:27:24;17.70;32.60
7900;DHT22;3995;50.856;4.404;2023-04-03T11:29:53;17.70;32.70
7900;DHT22;3995;50.856;4.404;2023-04-03T11:32:44;17.70;33.00
7900;DHT22;3995;50.856;4.404;2023-04-03T11:35:17;17.80;33.10
7900;DHT22;3995;50.856;4.404;2023-04-03T11:37:47;17.80;33.20
7900;DHT22;3995;50.856;4.404;2023-04-03T11:40:25;17.80;33.60
7900;DHT22;3995;50.856;4.404;2023-04-03T11:42:54;17.80;33.30
7900;DHT22;3995;50.856;4.404;2023-04-03T11:45:49;17.80;33.20
7900;DHT22;3995;50.856;4.404;2023-04-03T11:48:43;17.80;32.80
7900;DHT22;3995;50.856;4.404;2023-04-03T11:51:41;17.80;32.10
7900;DHT22;3995;50.856;4.404;2023-04-03T11:54:46;17.80;32.80
7900;DHT22;3995;50.856;4.404;2023-04-03T11:57:43;17.80;32.20
7900;DHT22;3995;50.856;4.404;2023-04-03T12:00:46;17.70;32.40
7900;DHT22;3995;50.856;4.404;2023-04-03T12:09:26;17.70;32.30
7900;DHT22;3995;50.856;4.404;2023-04-03T12:11:56;17.70;31.90
7900;DHT22;3995;50.856;4.404;2023-04-03T12:14:24;17.70;31.20
7900;DHT22;3995;50.856;4.404;2023-04-03T12:16:53;17.80;30.80
7900;DHT22;3995;50.856;4.404;2023-04-03T12:19:40;17.80;30.10
7900;DHT22;3995;50.856;4.404;2023-04-03T12:22:15;17.90;29.50
7900;DHT22;3995;50.856;4.404;2023-04-03T12:24:48;17.80;29.30
7900;DHT22;3995;50.856;4.404;2023-04-03T12:27:24;17.90;29.00
7900;DHT22;3995;50.856;4.404;2023-04-03T12:30:05;17.90;29.00
7900;DHT22;3995;50.856;4.404;2023-04-03T12:35:44;18.00;28.10
7900;DHT22;3995;50.856;4.404;2023-04-03T12:38:36;18.00;28.20
7900;DHT22;3995;50.856;4.404;2023-04-03T12:41:30;18.00;27.90
7900;DHT22;3995;50.856;4.404;2023-04-03T12:44:24;18.00;27.80
7900;DHT22;3995;50.856;4.404;2023-04-03T12:46:54;18.10;27.80
7900;DHT22;3995;50.856;4.404;2023-04-03T12:49:35;18.10;27.90
7900;DHT22;3995;50.856;4.404;2023-04-03T12:52:05;18.10;27.50
7900;DHT22;3995;50.856;4.404;2023-04-03T12:54:35;18.10;27.50
7900;DHT22;3995;50.856;4.404;2023-04-03T12:57:12;18.00;27.00
7900;DHT22;3995;50.856;4.404;2023-04-03T12:59:39;17.90;26.90
7900;DHT22;3995;50.856;4.404;2023-04-03T13:02:25;17.70;27.10
7900;DHT22;3995;50.856;4.404;2023-04-03T13:04:54;17.50;27.10
7900;DHT22;3995;50.856;4.404;2023-04-03T13:07:25;17.30;27.50
7900;DHT22;3995;50.856;4.404;2023-04-03T13:09:58;17.10;27.40
7900;DHT22;3995;50.856;4.404;2023-04-03T13:12:27;16.80;27.10
7900;DHT22;3995;50.856;4.404;2023-04-03T13:14:58;16.60;27.10
7900;DHT22;3995;50.856;4.404;2023-04-03T13:17:27;16.50;27.00
7900;DHT22;3995;50.856;4.404;2023-04-03T13:19:54;16.30;26.90
7900;DHT22;3995;50.856;4.404;2023-04-03T13:22:28;16.10;26.70
7900;DHT22;3995;50.856;4.404;2023-04-03T13:24:59;16.00;26.80
7900;DHT22;3995;50.856;4.404;2023-04-03T13:27:30;15.80;27.00
7900;DHT22;3995;50.856;4.404;2023-04-03T13:29:59;15.60;26.70
7900;DHT22;3995;50.856;4.404;2023-04-03T13:32:29;15.60;27.00
7900;DHT22;3995;50.856;4.404;2023-04-03T13:34:57;15.40;26.90
7900;DHT22;3995;50.856;4.404;2023-04-03T13:37:27;15.30;26.80
7900;DHT22;3995;50.856;4.404;2023-04-03T13:40:00;15.20;26.70
7900;DHT22;3995;50.856;4.404;2023-04-03T13:42:31;15.20;26.70
7900;DHT22;3995;50.856;4.404;2023-04-03T13:45:11;15.10;27.00
7900;DHT22;3995;50.856;4.404;2023-04-03T13:47:44;15.00;27.20
7900;DHT22;3995;50.856;4.404;2023-04-03T13:50:17;14.90;27.40
7900;DHT22;3995;50.856;4.404;2023-04-03T13:52:47;14.90;27.60
7900;DHT22;3995;50.856;4.404;2023-04-03T13:55:19;14.80;27.90
7900;DHT22;3995;50.856;4.404;2023-04-03T13:57:54;14.70;27.70
7900;DHT22;3995;50.856;4.404;2023-04-03T14:00:36;14.70;27.50
7900;DHT22;3995;50.856;4.404;2023-04-03T14:03:12;14.70;27.40
7900;DHT22;3995;50.856;4.404;2023-04-03T14:05:40;14.60;27.60
7900;DHT22;3995;50.856;4.404;2023-04-03T14:08:08;14.50;27.80
7900;DHT22;3995;50.856;4.404;2023-04-03T14:10:35;14.50;27.70
7900;DHT22;3995;50.856;4.404;2023-04-03T14:13:05;14.40;27.70
7900;DHT22;3995;50.856;4.404;2023-04-03T14:15:32;14.40;27.80
7900;DHT22;3995;50.856;4.404;2023-04-03T14:17:59;14.30;27.80
7900;DHT22;3995;50.856;4.404;2023-04-03T14:20:27;14.30;28.00
7900;DHT22;3995;50.856;4.404;2023-04-03T14:22:55;14.30;28.10
7900;DHT22;3995;50.856;4.404;2023-04-03T14:25:22;14.20;28.10
7900;DHT22;3995;50.856;4.404;2023-04-03T14:27:52;14.20;28.00
7900;DHT22;3995;50.856;4.404;2023-04-03T14:30:25;14.20;28.30
7900;DHT22;3995;50.856;4.404;2023-04-03T14:32:52;14.20;28.00
7900;DHT22;3995;50.856;4.404;2023-04-03T14:35:23;14.20;27.90
7900;DHT22;3995;50.856;4.404;2023-04-03T14:37:52;14.20;27.80
7900;DHT22;3995;50.856;4.404;2023-04-03T14:40:24;14.10;27.80
7900;DHT22;3995;50.856;4.404;2023-04-03T14:42:52;14.10;27.70
7900;DHT22;3995;50.856;4.404;2023-04-03T14:45:22;14.10;27.80
7900;DHT22;3995;50.856;4.404;2023-04-03T14:47:52;14.00;27.90
7900;DHT22;3995;50.856;4.404;2023-04-03T14:50:22;14.00;27.90
7900;DHT22;3995;50.856;4.404;2023-04-03T14:52:52;14.00;28.50
7900;DHT22;3995;50.856;4.404;2023-04-03T14:55:22;14.00;28.10
7900;DHT22;3995;50.856;4.404;2023-04-03T14:57:51;14.00;28.20
7900;DHT22;3995;50.856;4.404;2023-04-03T15:00:20;13.90;28.10
7900;DHT22;3995;50.856;4.404;2023-04-03T15:02:49;13.90;28.20
7900;DHT22;3995;50.856;4.404;2023-04-03T15:05:16;13.90;28.10
7900;DHT22;3995;50.856;4.404;2023-04-03T15:07:48;13.90;28.00
7900;DHT22;3995;50.856;4.404;2023-04-03T15:10:19;13.90;27.90
7900;DHT22;3995;50.856;4.404;2023-04-03T15:12:46;13.90;27.80
7900;DHT22;3995;50.856;4.404;2023-04-03T15:15:16;13.90;27.80
7900;DHT22;3995;50.856;4.404;2023-04-03T15:17:45;13.90;27.90
7900;DHT22;3995;50.856;4.404;2023-04-03T15:20:17;13.90;27.90
7900;DHT22;3995;50.856;4.404;2023-04-03T15:22:45;13.90;28.00
7900;DHT22;3995;50.856;4.404;2023-04-03T15:25:13;13.90;27.80
7900;DHT22;3995;50.856;4.404;2023-04-03T15:27:40;13.90;27.80
7900;DHT22;3995;50.856;4.404;2023-04-03T15:30:11;13.90;27.70
7900;DHT22;3995;50.856;4.404;2023-04-03T15:32:39;13.90;27.60
7900;DHT22;3995;50.856;4.404;2023-04-03T15:35:07;13.90;27.60
7900;DHT22;3995;50.856;4.404;2023-04-03T15:37:36;13.90;27.60
7900;DHT22;3995;50.856;4.404;2023-04-03T15:40:04;13.90;27.60
7900;DHT22;3995;50.856;4.404;2023-04-03T15:42:32;13.90;27.50
7900;DHT22;3995;50.856;4.404;2023-04-03T15:44:59;13.90;27.40
7900;DHT22;3995;50.856;4.404;2023-04-03T15:47:26;13.90;27.40
7900;DHT22;3995;50.856;4.404;2023-04-03T15:49:54;13.90;27.40
7900;DHT22;3995;50.856;4.404;2023-04-03T15:52:22;13.80;27.50
7900;DHT22;3995;50.856;4.404;2023-04-03T15:54:51;13.80;27.70
7900;DHT22;3995;50.856;4.404;2023-04-03T15:57:18;13.80;27.80
7900;DHT22;3995;50.856;4.404;2023-04-03T15:59:51;13.80;28.10
7900;DHT22;3995;50.856;4.404;2023-04-03T16:02:18;13.80;28.40
7900;DHT22;3995;50.856;4.404;2023-04-03T16:04:46;13.80;28.50
7900;DHT22;3995;50.856;4.404;2023-04-03T16:07:13;13.80;28.50
7900;DHT22;3995;50.856;4.404;2023-04-03T16:09:41;13.80;28.50
7900;DHT22;3995;50.856;4.404;2023-04-03T16:12:10;13.70;28.40
7900;DHT22;3995;50.856;4.404;2023-04-03T16:14:37;13.70;28.40
7900;DHT22;3995;50.856;4.404;2023-04-03T16:17:04;13.70;28.70
7900;DHT22;3995;50.856;4.404;2023-04-03T16:19:31;13.70;28.90
7900;DHT22;3995;50.856;4.404;2023-04-03T16:21:59;13.70;29.00
7900;DHT22;3995;50.856;4.404;2023-04-03T16:24:26;13.70;29.00
7900;DHT22;3995;50.856;4.404;2023-04-03T16:26:54;13.70;29.20
7900;DHT22;3995;50.856;4.404;2023-04-03T16:29:23;13.70;29.20
7900;DHT22;3995;50.856;4.404;2023-04-03T16:31:50;13.70;29.30
7900;DHT22;3995;50.856;4.404;2023-04-03T16:34:17;13.70;29.30
7900;DHT22;3995;50.856;4.404;2023-04-03T16:36:44;13.70;29.30
7900;DHT22;3995;50.856;4.404;2023-04-03T16:39:11;13.70;29.40